createdAt,value
2019-04-01T00:00:36.595Z,11.50
2019-04-01T00:03:06.601Z,11.53
2019-04-01T00:05:35.413Z,11.47
2019-04-01T00:08:04.546Z,11.33
2019-04-01T00:10:33.870Z,11.20
2019-04-01T00:13:02.702Z,10.70
2019-04-01T00:15:31.474Z,11.17
2019-04-01T00:18:00.238Z,11.38
2019-04-01T00:20:29.011Z,10.70
2019-04-01T00:22:57.839Z,11.10
2019-04-01T00:25:26.906Z,11.83
2019-04-01T00:27:55.730Z,11.77
2019-04-01T00:30:24.763Z,11.97
2019-04-01T00:32:53.540Z,12.10
2019-04-01T00:35:22.378Z,11.33
2019-04-01T00:37:51.150Z,11.20
2019-04-01T00:40:21.354Z,13.08
2019-04-01T00:42:55.236Z,11.97
2019-04-01T00:45:24.950Z,12.20
2019-04-01T00:47:53.697Z,11.70
2019-04-01T00:50:22.568Z,12.47
2019-04-01T00:52:51.323Z,12.30
2019-04-01T00:55:20.075Z,12.13
2019-04-01T00:57:48.828Z,12.17
2019-04-01T01:00:19.046Z,12.90
2019-04-01T01:02:47.790Z,12.20
2019-04-01T01:05:16.578Z,12.77
2019-04-01T01:07:45.345Z,12.35
2019-04-01T01:10:14.244Z,12.30
2019-04-01T01:12:43.073Z,12.37
2019-04-01T01:15:11.890Z,12.57
2019-04-01T01:17:40.653Z,13.70
2019-04-01T01:20:09.858Z,11.75
2019-04-01T01:22:38.617Z,13.40
2019-04-01T01:25:07.531Z,13.13
2019-04-01T01:27:36.294Z,14.40
2019-04-01T01:30:05.673Z,12.95
2019-04-01T01:32:34.427Z,14.27
2019-04-01T01:35:04.796Z,12.50
2019-04-01T01:37:33.754Z,13.67
2019-04-01T01:40:02.555Z,13.33
2019-04-01T01:42:31.314Z,12.93
2019-04-01T01:45:00.104Z,13.40
2019-04-01T01:47:29.102Z,13.33
2019-04-01T01:49:57.862Z,13.73
2019-04-01T01:52:26.618Z,13.63
2019-04-01T01:54:55.361Z,15.33
2019-04-01T01:57:24.129Z,15.60
2019-04-01T01:59:52.989Z,15.90
2019-04-01T02:02:21.746Z,15.50
2019-04-01T02:04:50.501Z,15.13
2019-04-01T02:07:19.338Z,16.53
2019-04-01T02:09:48.095Z,16.60
2019-04-01T02:12:17.030Z,15.93
2019-04-01T02:14:45.764Z,15.47
2019-04-01T02:17:14.717Z,15.83
2019-04-01T02:19:43.454Z,15.77
2019-04-01T02:22:12.225Z,15.43
2019-04-01T02:24:41.402Z,16.90
2019-04-01T02:27:10.280Z,15.67
2019-04-01T02:29:39.026Z,17.37
2019-04-01T02:32:07.805Z,17.20
2019-04-01T02:34:36.560Z,16.83
2019-04-01T02:37:05.327Z,16.97
2019-04-01T02:39:34.367Z,16.57
2019-04-01T02:42:03.758Z,16.77
2019-04-01T02:44:32.526Z,18.27
2019-04-01T02:47:01.338Z,16.73
2019-04-01T02:49:30.091Z,17.57
2019-04-01T02:51:58.854Z,16.60
2019-04-01T02:54:27.603Z,17.90
2019-04-01T02:56:56.376Z,17.40
2019-04-01T02:59:26.473Z,16.77
2019-04-01T03:01:55.302Z,17.85
2019-04-01T03:04:24.067Z,16.82
2019-04-01T03:06:52.830Z,18.27
2019-04-01T03:09:21.601Z,17.30
2019-04-01T03:11:50.362Z,18.20
2019-04-01T03:14:20.309Z,18.40
2019-04-01T03:16:49.066Z,18.10
2019-04-01T03:19:17.834Z,18.40
2019-04-01T03:21:46.655Z,18.07
2019-04-01T03:24:16.971Z,18.60
2019-04-01T03:26:45.726Z,17.95
2019-04-01T03:29:14.516Z,18.33
2019-04-01T03:31:43.337Z,18.15
2019-04-01T03:34:12.126Z,17.63
2019-04-01T03:36:40.935Z,18.17
2019-04-01T03:39:11.048Z,17.67
2019-04-01T03:41:40.348Z,16.45
2019-04-01T03:44:09.197Z,16.67
2019-04-01T03:46:37.930Z,18.60
2019-04-01T03:49:06.731Z,17.40
2019-04-01T03:51:35.806Z,16.77
2019-04-01T03:54:04.596Z,16.17
2019-04-01T03:56:33.407Z,17.27
2019-04-01T03:59:02.169Z,16.10
2019-04-01T04:01:30.944Z,16.70
2019-04-01T04:03:59.765Z,17.57
2019-04-01T04:06:28.672Z,18.70
2019-04-01T04:09:01.538Z,18.27
2019-04-01T04:11:28.186Z,16.40
2019-04-01T04:13:57.040Z,15.83
2019-04-01T04:16:25.797Z,17.50
2019-04-01T04:18:54.566Z,21.27
2019-04-01T04:21:24.163Z,18.52
2019-04-01T04:23:53.303Z,17.02
2019-04-01T04:26:22.111Z,18.57
2019-04-01T04:28:50.903Z,16.63
2019-04-01T04:31:19.676Z,17.23
2019-04-01T04:33:48.433Z,16.87
2019-04-01T04:36:17.192Z,17.47
2019-04-01T04:38:45.939Z,17.43
2019-04-01T04:41:14.719Z,17.60
2019-04-01T04:43:43.554Z,17.97
2019-04-01T04:46:12.331Z,17.87
2019-04-01T04:48:41.082Z,18.12
2019-04-01T04:51:09.844Z,18.13
2019-04-01T04:53:38.697Z,16.83
2019-04-01T04:56:07.459Z,18.87
2019-04-01T04:58:36.219Z,23.00
2019-04-01T05:01:05.228Z,23.10
2019-04-01T05:03:33.947Z,19.70
2019-04-01T05:06:02.778Z,18.13
2019-04-01T05:08:31.548Z,18.60
2019-04-01T05:11:00.315Z,17.50
2019-04-01T05:13:29.355Z,17.60
2019-04-01T05:15:58.178Z,16.27
2019-04-01T05:18:26.953Z,16.47
2019-04-01T05:20:58.395Z,15.48
2019-04-01T05:23:27.436Z,16.77
2019-04-01T05:25:56.191Z,16.27
2019-04-01T05:28:27.542Z,14.57
2019-04-01T05:30:58.518Z,17.55
2019-04-01T05:33:28.894Z,17.57
2019-04-01T05:35:58.109Z,15.97
2019-04-01T05:38:27.300Z,14.47
2019-04-01T05:40:56.596Z,15.30
2019-04-01T05:43:25.790Z,14.60
2019-04-01T05:45:54.626Z,14.20
2019-04-01T05:48:28.596Z,14.93
2019-04-01T05:50:57.502Z,14.47
2019-04-01T05:53:26.488Z,13.17
2019-04-01T05:55:55.318Z,13.37
2019-04-01T05:58:24.157Z,13.07
2019-04-01T06:00:58.804Z,14.03
2019-04-01T06:03:27.811Z,12.87
2019-04-01T06:05:56.638Z,13.63
2019-04-01T06:08:25.563Z,13.77
2019-04-01T06:10:54.387Z,13.73
2019-04-01T06:13:23.490Z,14.03
2019-04-01T06:15:52.322Z,13.37
2019-04-01T06:18:21.250Z,13.00
2019-04-01T06:20:50.303Z,13.03
2019-04-01T06:23:19.207Z,11.57
2019-04-01T06:25:48.034Z,11.37
2019-04-01T06:28:16.795Z,11.87
2019-04-01T06:30:45.641Z,11.27
2019-04-01T06:33:14.574Z,11.57
2019-04-01T06:35:44.010Z,11.90
2019-04-01T06:38:12.885Z,12.13
2019-04-01T06:40:41.801Z,12.23
2019-04-01T06:43:10.558Z,11.53
2019-04-01T06:45:39.414Z,10.98
2019-04-01T06:48:09.378Z,10.78
2019-04-01T06:50:38.291Z,10.97
2019-04-01T06:53:07.190Z,10.77
2019-04-01T06:55:35.950Z,10.73
2019-04-01T06:58:04.881Z,10.60
2019-04-01T07:00:34.007Z,11.55
2019-04-01T07:03:02.978Z,10.00
2019-04-01T07:05:31.885Z,10.60
2019-04-01T07:08:00.653Z,10.67
2019-04-01T07:10:29.560Z,10.03
2019-04-01T07:12:58.393Z,10.27
2019-04-01T07:15:27.234Z,9.97
2019-04-01T07:17:56.282Z,10.53
2019-04-01T07:20:25.055Z,10.03
2019-04-01T07:22:53.833Z,9.33
2019-04-01T07:25:22.898Z,9.57
2019-04-01T07:27:51.726Z,9.20
2019-04-01T07:30:20.990Z,9.47
2019-04-01T07:32:49.742Z,8.63
2019-04-01T07:35:18.631Z,8.60
2019-04-01T07:37:49.341Z,8.83
2019-04-01T07:40:18.178Z,9.10
2019-04-01T07:42:47.037Z,8.43
2019-04-01T07:45:15.996Z,8.40
2019-04-01T07:47:45.237Z,8.53
2019-04-01T07:50:15.454Z,8.53
2019-04-01T07:52:44.386Z,8.30
2019-04-01T07:55:13.498Z,8.58
2019-04-01T07:57:42.342Z,7.80
2019-04-01T08:00:11.804Z,9.15
2019-04-01T08:02:40.730Z,9.17
2019-04-01T08:05:10.914Z,7.80
2019-04-01T08:07:39.658Z,8.37
2019-04-01T08:10:09.343Z,8.60
2019-04-01T08:12:38.253Z,9.00
2019-04-01T08:15:07.503Z,8.63
2019-04-01T08:17:36.336Z,9.00
2019-04-01T08:20:05.790Z,8.77
2019-04-01T08:22:34.700Z,9.37
2019-04-01T08:25:03.736Z,9.80
2019-04-01T08:27:32.583Z,8.70
2019-04-01T08:30:01.503Z,9.23
2019-04-01T08:32:30.584Z,10.63
2019-04-01T08:34:59.690Z,9.53
2019-04-01T08:37:28.535Z,9.77
2019-04-01T08:39:57.360Z,10.20
2019-04-01T08:42:26.323Z,10.87
2019-04-01T08:44:55.261Z,11.00
2019-04-01T08:47:24.103Z,10.37
2019-04-01T08:49:53.155Z,10.98
2019-04-01T08:52:21.995Z,11.40
2019-04-01T08:54:52.305Z,11.67
2019-04-01T08:57:21.242Z,12.20
2019-04-01T08:59:51.474Z,11.57
2019-04-01T09:02:20.294Z,12.47
2019-04-01T09:04:49.357Z,11.03
2019-04-01T09:07:18.104Z,11.13
2019-04-01T09:09:47.636Z,10.90
2019-04-01T09:12:16.990Z,12.10
2019-04-01T09:14:47.014Z,11.97
2019-04-01T09:17:16.328Z,11.40
2019-04-01T09:19:45.180Z,11.30
2019-04-01T09:22:14.128Z,11.68
2019-04-01T09:24:42.893Z,11.33
2019-04-01T09:27:12.150Z,11.13
2019-04-01T09:29:40.922Z,11.50
2019-04-01T09:32:10.738Z,11.93
2019-04-01T09:34:39.530Z,10.67
2019-04-01T09:37:08.310Z,11.13
2019-04-01T09:39:37.148Z,9.97
2019-04-01T09:42:05.990Z,10.63
2019-04-01T09:44:36.943Z,10.40
2019-04-01T09:47:05.449Z,10.40
2019-04-01T09:49:34.214Z,11.05
2019-04-01T09:52:04.002Z,10.37
2019-04-01T09:54:33.017Z,11.87
2019-04-01T09:57:16.242Z,10.97
2019-04-01T09:59:32.470Z,11.30
2019-04-01T10:02:01.228Z,11.30
2019-04-01T10:04:30.069Z,11.00
2019-04-01T10:06:58.826Z,10.35
2019-04-01T10:09:27.675Z,9.93
2019-04-01T10:11:56.517Z,11.00
2019-04-01T10:14:25.268Z,11.17
2019-04-01T10:16:54.114Z,10.35
2019-04-01T10:19:22.869Z,11.03
2019-04-01T10:21:52.624Z,10.65
2019-04-01T10:24:21.473Z,10.30
2019-04-01T10:26:50.243Z,11.17
2019-04-01T10:29:19.066Z,10.90
2019-04-01T10:31:47.858Z,10.80
2019-04-01T10:34:16.614Z,10.38
2019-04-01T10:36:45.387Z,11.03
2019-04-01T10:39:14.290Z,11.93
2019-04-01T10:41:43.066Z,10.97
2019-04-01T10:44:12.403Z,11.43
2019-04-01T10:46:41.268Z,11.47
2019-04-01T10:49:10.141Z,11.73
2019-04-01T10:51:39.282Z,11.17
2019-04-01T10:54:08.250Z,11.73
2019-04-01T10:56:37.173Z,11.68
2019-04-01T10:59:06.004Z,11.67
2019-04-01T11:01:34.935Z,12.37
2019-04-01T11:04:03.696Z,12.53
2019-04-01T11:06:32.647Z,12.20
2019-04-01T11:09:01.410Z,12.37
2019-04-01T11:11:30.798Z,12.70
2019-04-01T11:13:59.565Z,12.70
2019-04-01T11:16:31.566Z,13.10
2019-04-01T11:18:59.010Z,13.17
2019-04-01T11:21:27.864Z,14.17
2019-04-01T11:23:56.618Z,12.63
2019-04-01T11:26:25.391Z,14.53
2019-04-01T11:28:55.366Z,13.70
2019-04-01T11:31:24.207Z,12.07
2019-04-01T11:33:53.567Z,13.13
2019-04-01T11:36:22.427Z,13.33
2019-04-01T11:38:51.883Z,13.07
2019-04-01T11:41:23.775Z,13.10
2019-04-01T11:43:58.108Z,13.17
2019-04-01T11:46:34.083Z,13.13
2019-04-01T11:49:08.104Z,12.60
2019-04-01T11:51:40.042Z,13.47
2019-04-01T11:54:10.047Z,13.07
2019-04-01T11:56:39.513Z,12.80
2019-04-01T11:59:13.168Z,13.37
2019-04-01T12:01:42.323Z,13.40
2019-04-01T12:04:13.491Z,12.70
2019-04-01T12:06:42.384Z,13.97
2019-04-01T12:09:11.216Z,14.03
2019-04-01T12:11:40.096Z,14.37
2019-04-01T12:14:08.928Z,14.00
2019-04-01T12:16:37.690Z,13.55
2019-04-01T12:19:07.670Z,13.90
2019-04-01T12:21:41.261Z,14.18
2019-04-01T12:24:10.195Z,14.80
2019-04-01T12:26:41.825Z,14.47
2019-04-01T12:29:14.371Z,13.70
2019-04-01T12:31:43.186Z,13.70
2019-04-01T12:34:11.957Z,15.73
2019-04-01T12:36:46.520Z,14.25
2019-04-01T12:39:19.182Z,14.00
2019-04-01T12:41:53.232Z,14.50
2019-04-01T12:44:24.436Z,15.70
2019-04-01T12:46:53.250Z,14.55
2019-04-01T12:49:25.184Z,15.93
2019-04-01T12:51:54.089Z,14.47
2019-04-01T12:54:26.203Z,16.73
2019-04-01T12:56:57.258Z,15.73
2019-04-01T12:59:26.149Z,15.23
2019-04-01T13:01:54.934Z,16.10
2019-04-01T13:04:26.905Z,16.33
2019-04-01T13:06:57.393Z,16.13
2019-04-01T13:09:29.155Z,14.43
2019-04-01T13:11:57.964Z,14.23
2019-04-01T13:14:26.741Z,13.93
2019-04-01T13:16:55.686Z,15.20
2019-04-01T13:19:24.811Z,14.63
2019-04-01T13:21:53.624Z,14.93
2019-04-01T13:24:23.022Z,15.45
2019-04-01T13:26:54.560Z,15.30
2019-04-01T13:29:30.047Z,15.97
2019-04-01T13:32:00.961Z,15.20
2019-04-01T13:34:29.978Z,14.80
2019-04-01T13:36:58.750Z,15.20
2019-04-01T13:39:27.582Z,15.47
2019-04-01T13:41:56.605Z,14.63
2019-04-01T13:44:36.109Z,14.47
2019-04-01T13:46:56.120Z,14.98
2019-04-01T13:49:25.847Z,15.10
2019-04-01T13:51:59.170Z,14.45
2019-04-01T13:54:29.053Z,14.57
2019-04-01T13:56:59.681Z,15.13
2019-04-01T13:59:31.104Z,14.60
2019-04-01T14:01:59.939Z,14.03
2019-04-01T14:04:28.762Z,15.20
2019-04-01T14:07:01.528Z,16.17
2019-04-01T14:09:33.374Z,14.00
2019-04-01T14:12:02.218Z,14.47
2019-04-01T14:14:30.978Z,14.73
2019-04-01T14:16:59.742Z,15.30
2019-04-01T14:19:28.503Z,13.57
2019-04-01T14:21:57.257Z,14.37
2019-04-01T14:24:26.018Z,14.83
2019-04-01T14:26:56.631Z,14.50
2019-04-01T14:29:25.254Z,15.00
2019-04-01T14:31:54.094Z,15.50
2019-04-01T14:34:23.856Z,15.33
2019-04-01T14:36:52.746Z,14.83
2019-04-01T14:39:22.222Z,14.07
2019-04-01T14:41:51.015Z,13.73
2019-04-01T14:44:19.766Z,14.40
2019-04-01T14:46:49.091Z,13.80
2019-04-01T14:49:17.851Z,14.80
2019-04-01T14:51:46.689Z,14.47
2019-04-01T14:54:15.526Z,14.97
2019-04-01T14:56:44.300Z,14.50
2019-04-01T14:59:13.068Z,14.40
2019-04-01T15:01:42.307Z,14.83
2019-04-01T15:04:11.339Z,13.87
2019-04-01T15:06:41.264Z,14.43
2019-04-01T15:09:12.054Z,15.10
2019-04-01T15:11:41.271Z,14.27
2019-04-01T15:14:11.796Z,14.07
2019-04-01T15:16:40.841Z,13.53
2019-04-01T15:19:12.621Z,14.28
2019-04-01T15:21:40.106Z,14.53
2019-04-01T15:24:08.936Z,14.10
2019-04-01T15:26:49.508Z,14.15
2019-04-01T15:29:18.324Z,13.47
2019-04-01T15:31:48.291Z,12.50
2019-04-01T15:34:21.875Z,12.30
2019-04-01T15:36:50.698Z,13.27
2019-04-01T15:39:19.993Z,12.53
2019-04-01T15:41:49.190Z,13.87
2019-04-01T15:44:17.970Z,13.10
2019-04-01T15:46:46.746Z,12.33
2019-04-01T15:49:15.541Z,12.80
2019-04-01T15:51:44.366Z,13.33
2019-04-01T15:54:13.129Z,13.13
2019-04-01T15:56:42.127Z,13.55
2019-04-01T15:59:11.019Z,13.47
2019-04-01T16:01:39.774Z,12.97
2019-04-01T16:04:08.890Z,12.93
2019-04-01T16:06:37.868Z,14.17
2019-04-01T16:09:07.695Z,13.60
2019-04-01T16:11:36.545Z,12.93
2019-04-01T16:14:12.005Z,13.37
2019-04-01T16:16:50.889Z,13.72
2019-04-01T16:19:19.730Z,12.60
2019-04-01T16:21:48.502Z,14.13
2019-04-01T16:24:17.367Z,13.30
2019-04-01T16:26:46.128Z,13.37
2019-04-01T16:29:14.934Z,13.87
2019-04-01T16:31:44.670Z,13.25
2019-04-01T16:34:13.633Z,13.90
2019-04-01T16:36:42.467Z,17.33
2019-04-01T16:39:11.311Z,14.23
2019-04-01T16:41:40.144Z,13.77
2019-04-01T16:44:08.981Z,14.60
2019-04-01T16:46:37.990Z,13.87
2019-04-01T16:49:07.705Z,12.80
2019-04-01T16:51:37.262Z,14.20
2019-04-01T16:54:06.370Z,12.87
2019-04-01T16:56:35.160Z,13.03
2019-04-01T16:59:04.022Z,12.73
2019-04-01T17:01:32.878Z,13.07
2019-04-01T17:04:01.916Z,13.00
2019-04-01T17:06:30.695Z,12.88
2019-04-01T17:08:59.614Z,12.80
2019-04-01T17:11:28.442Z,16.10
2019-04-01T17:13:57.236Z,12.43
2019-04-01T17:16:26.129Z,12.60
2019-04-01T17:18:57.599Z,12.97
2019-04-01T17:21:26.514Z,13.53
2019-04-01T17:23:55.312Z,14.13
2019-04-01T17:26:30.535Z,13.60
2019-04-01T17:29:00.638Z,13.80
2019-04-01T17:31:29.499Z,14.27
2019-04-01T17:34:00.468Z,60.60
2019-04-01T17:36:30.263Z,15.13
2019-04-01T17:38:59.625Z,14.33
2019-04-01T17:41:29.026Z,13.27
2019-04-01T17:43:57.940Z,13.80
2019-04-01T17:46:27.281Z,13.87
2019-04-01T17:48:56.682Z,13.90
2019-04-01T17:51:26.060Z,13.80
2019-04-01T17:53:55.794Z,13.67
2019-04-01T17:56:28.164Z,14.30
2019-04-01T17:59:01.276Z,13.40
2019-04-01T18:01:28.658Z,12.50
2019-04-01T18:03:57.827Z,13.50
2019-04-01T18:06:27.237Z,13.87
2019-04-01T18:08:56.768Z,12.67
2019-04-01T18:11:26.180Z,12.03
2019-04-01T18:13:55.680Z,12.27
2019-04-01T18:16:25.002Z,12.18
2019-04-01T18:18:54.231Z,11.80
2019-04-01T18:21:25.003Z,11.70
2019-04-01T18:23:54.138Z,11.97
2019-04-01T18:26:24.195Z,12.33
2019-04-01T18:28:54.838Z,12.47
2019-04-01T18:31:24.024Z,12.83
2019-04-01T18:33:56.432Z,12.13
2019-04-01T18:36:25.131Z,12.82
2019-04-01T18:38:54.246Z,12.77
2019-04-01T18:41:23.424Z,12.30
2019-04-01T18:43:52.653Z,11.83
2019-04-01T18:46:23.437Z,12.40
2019-04-01T18:48:54.991Z,12.00
2019-04-01T18:51:24.329Z,12.97
2019-04-01T18:53:53.430Z,12.78
2019-04-01T18:56:24.638Z,13.57
2019-04-01T18:58:56.362Z,14.28
2019-04-01T19:01:25.752Z,12.93
2019-04-01T19:03:54.761Z,13.53
2019-04-01T19:06:24.145Z,14.20
2019-04-01T19:08:53.296Z,14.03
2019-04-01T19:11:22.714Z,13.90
2019-04-01T19:13:52.059Z,14.13
2019-04-01T19:16:23.051Z,13.53
2019-04-01T19:18:54.553Z,15.70
2019-04-01T19:21:23.451Z,15.30
2019-04-01T19:23:52.219Z,14.10
2019-04-01T19:26:21.002Z,12.98
2019-04-01T19:28:49.774Z,13.63
2019-04-01T19:31:18.526Z,13.95
2019-04-01T19:33:47.299Z,14.13
2019-04-01T19:36:16.129Z,13.43
2019-04-01T19:38:44.874Z,12.40
2019-04-01T19:41:13.722Z,13.53
2019-04-01T19:43:42.479Z,16.80
2019-04-01T19:46:11.246Z,24.40
2019-04-01T19:48:40.084Z,17.90
2019-04-01T19:51:08.865Z,15.20
2019-04-01T19:53:37.624Z,14.93
2019-04-01T19:56:06.629Z,13.60
2019-04-01T19:58:35.386Z,13.30
2019-04-01T20:01:04.337Z,12.17
2019-04-01T20:03:33.491Z,12.60
2019-04-01T20:06:02.252Z,13.57
2019-04-01T20:08:31.056Z,12.73
2019-04-01T20:10:59.823Z,12.77
2019-04-01T20:13:28.619Z,13.60
2019-04-01T20:15:57.351Z,13.13
2019-04-01T20:18:26.094Z,12.03
2019-04-01T20:20:54.870Z,12.68
2019-04-01T20:23:23.634Z,12.53
2019-04-01T20:25:52.407Z,12.53
2019-04-01T20:28:21.228Z,12.50
2019-04-01T20:30:50.243Z,13.10
2019-04-01T20:33:20.686Z,13.70
2019-04-01T20:35:49.600Z,12.90
2019-04-01T20:38:18.753Z,12.90
2019-04-01T20:40:48.321Z,12.67
2019-04-01T20:43:17.918Z,12.43
2019-04-01T20:45:46.920Z,12.20
2019-04-01T20:48:16.402Z,12.07
2019-04-01T20:50:47.315Z,12.10
2019-04-01T20:53:16.883Z,12.45
2019-04-01T20:55:51.230Z,12.17
2019-04-01T20:58:21.855Z,12.43
2019-04-01T21:00:50.701Z,11.80
2019-04-01T21:03:19.958Z,11.57
2019-04-01T21:05:49.024Z,11.47
2019-04-01T21:08:18.509Z,12.20
2019-04-01T21:10:48.059Z,11.12
2019-04-01T21:13:17.710Z,12.30
2019-04-01T21:15:49.542Z,11.10
2019-04-01T21:18:19.185Z,10.87
2019-04-01T21:20:50.580Z,10.77
2019-04-01T21:23:19.817Z,10.13
2019-04-01T21:25:49.116Z,10.47
2019-04-01T21:28:19.024Z,10.63
2019-04-01T21:30:50.056Z,10.43
2019-04-01T21:33:19.533Z,9.57
2019-04-01T21:35:48.483Z,9.60
2019-04-01T21:38:17.247Z,8.83
2019-04-01T21:40:46.309Z,8.90
2019-04-01T21:43:15.051Z,9.70
2019-04-01T21:45:44.934Z,9.77
2019-04-01T21:48:14.383Z,9.88
2019-04-01T21:50:43.344Z,9.87
2019-04-01T21:53:12.265Z,9.30
2019-04-01T21:55:41.518Z,9.80
2019-04-01T21:58:10.704Z,9.25
2019-04-01T22:00:56.979Z,10.13
2019-04-01T22:03:26.225Z,9.70
2019-04-01T22:05:55.481Z,10.03
2019-04-01T22:08:24.547Z,9.93
2019-04-01T22:10:53.776Z,9.00
2019-04-01T22:13:22.586Z,10.23
2019-04-01T22:15:51.462Z,9.40
2019-04-01T22:18:20.943Z,10.68
2019-04-01T22:20:49.953Z,10.20
2019-04-01T22:23:18.704Z,9.77
2019-04-01T22:25:48.496Z,10.27
2019-04-01T22:28:17.324Z,10.10
2019-04-01T22:30:46.449Z,9.85
2019-04-01T22:33:15.862Z,9.93
2019-04-01T22:35:44.621Z,9.60
2019-04-01T22:38:24.616Z,9.27
2019-04-01T22:40:44.422Z,9.88
2019-04-01T22:43:13.300Z,10.30
2019-04-01T22:45:42.071Z,10.30
2019-04-01T22:48:10.918Z,10.73
2019-04-01T22:50:39.799Z,10.40
2019-04-01T22:53:08.545Z,10.80
2019-04-01T22:55:37.386Z,10.55
2019-04-01T22:58:06.209Z,11.08
2019-04-01T23:00:35.341Z,10.27
2019-04-01T23:03:05.738Z,10.72
2019-04-01T23:05:34.716Z,11.80
2019-04-01T23:08:04.274Z,11.08
2019-04-01T23:10:33.074Z,10.70
2019-04-01T23:13:01.822Z,11.73
2019-04-01T23:15:30.653Z,11.30
2019-04-01T23:17:59.545Z,10.43
2019-04-01T23:20:28.298Z,10.77
2019-04-01T23:22:57.984Z,10.60
2019-04-01T23:25:27.201Z,10.85
2019-04-01T23:27:56.021Z,10.90
2019-04-01T23:30:24.806Z,11.53
2019-04-01T23:32:53.583Z,10.50
2019-04-01T23:35:23.256Z,12.17
2019-04-01T23:37:52.091Z,11.70
2019-04-01T23:40:20.860Z,12.03
2019-04-01T23:42:49.630Z,11.73
2019-04-01T23:45:18.406Z,11.77
2019-04-01T23:47:47.175Z,11.30
2019-04-01T23:50:15.941Z,11.57
2019-04-01T23:52:44.719Z,11.83
2019-04-01T23:55:13.919Z,10.93
2019-04-01T23:57:43.308Z,11.43
